Time;durP1;ratioP1;P1;durP2;ratioP2;P2;SDS_P1;SDS_P2;PMS_P1;PMS_P2;Temp;Humidity;BMP_temperature;BMP_pressure;BME280_temperature;BME280_humidity;BME280_pressure;Samples;Min_cycle;Max_cycle;Signal;HPM_P1;HPM_P2
2022/06/24 00:01:14;;;;;;;14.25;10.18;;;;;;;;;;5067160;28;20033;-61
2022/06/24 00:03:43;;;;;;;12.27;9.55;;;;;;;;;;5067080;28;20033;-61
2022/06/24 00:06:14;;;;;;;15.77;10.55;;;;;;;;;;5067327;28;20031;-63
2022/06/24 00:08:50;;;;;;;14.00;9.90;;;;;;;;;;5061055;28;20025;-61
2022/06/24 00:11:16;;;;;;;15.45;9.75;;;;;;;;;;5054009;28;20051;-63
2022/06/24 00:13:43;;;;;;;14.23;9.50;;;;;;;;;;5054009;28;20029;-62
2022/06/24 00:16:10;;;;;;;13.48;9.07;;;;;;;;;;5053960;28;20457;-61
2022/06/24 00:18:36;;;;;;;12.93;9.68;;;;;;;;;;5053755;28;20098;-63
2022/06/24 00:21:10;;;;;;;13.20;9.70;;;;;;;;;;5053663;28;20447;-61
2022/06/24 00:23:39;;;;;;;12.98;8.75;;;;;;;;;;5053716;28;20139;-62
2022/06/24 00:26:05;;;;;;;12.40;9.15;;;;;;;;;;5054022;28;20048;-63
2022/06/24 00:28:31;;;;;;;15.23;9.88;;;;;;;;;;5053578;28;20396;-63
2022/06/24 00:30:58;;;;;;;13.13;9.25;;;;;;;;;;5052273;28;20118;-62
2022/06/24 00:33:25;;;;;;;13.85;9.75;;;;;;;;;;5053509;28;20029;-63
2022/06/24 00:35:56;;;;;;;13.13;9.68;;;;;;;;;;5053589;28;20473;-62
2022/06/24 00:38:25;;;;;;;12.27;9.23;;;;;;;;;;5053344;28;20564;-62
2022/06/24 00:40:53;;;;;;;17.35;10.05;;;;;;;;;;5053427;28;20028;-62
2022/06/24 00:43:25;;;;;;;14.57;9.07;;;;;;;;;;5053429;28;20794;-63
2022/06/24 00:45:52;;;;;;;16.83;10.40;;;;;;;;;;5051881;28;20681;-62
2022/06/24 00:48:22;;;;;;;13.55;10.27;;;;;;;;;;5053124;28;20040;-63
2022/06/24 00:50:48;;;;;;;17.13;11.65;;;;;;;;;;5053182;28;20021;-63
2022/06/24 00:53:15;;;;;;;15.55;10.82;;;;;;;;;;5053396;28;20029;-60
2022/06/24 00:55:41;;;;;;;18.60;11.07;;;;;;;;;;5053175;28;20021;-65
2022/06/24 00:58:12;;;;;;;14.82;11.32;;;;;;;;;;5052673;28;20489;-62
2022/06/24 01:00:41;;;;;;;15.23;11.02;;;;;;;;;;5052970;28;20079;-62
2022/06/24 01:03:07;;;;;;;13.90;10.15;;;;;;;;;;5053250;28;20021;-61
2022/06/24 01:05:33;;;;;;;16.40;10.35;;;;;;;;;;5052968;28;20060;-62
2022/06/24 01:08:05;;;;;;;14.98;9.23;;;;;;;;;;5052983;28;20025;-63
2022/06/24 01:10:31;;;;;;;12.63;9.02;;;;;;;;;;5052919;28;20427;-61
2022/06/24 01:12:57;;;;;;;16.02;10.18;;;;;;;;;;5052978;28;20029;-62
2022/06/24 01:15:23;;;;;;;13.10;10.65;;;;;;;;;;5052923;28;20039;-64
2022/06/24 01:17:50;;;;;;;12.88;10.13;;;;;;;;;;5052783;28;20067;-61
2022/06/24 01:20:17;;;;;;;13.98;9.77;;;;;;;;;;5051658;28;20469;-62
2022/06/24 01:22:43;;;;;;;16.67;11.30;;;;;;;;;;5052506;28;20033;-63
2022/06/24 01:25:09;;;;;;;17.25;10.82;;;;;;;;;;5052696;28;20100;-62
2022/06/24 01:27:35;;;;;;;14.48;10.48;;;;;;;;;;5052323;28;20112;-62
2022/06/24 01:30:01;;;;;;;17.17;9.77;;;;;;;;;;5052450;28;20028;-61
2022/06/24 01:32:28;;;;;;;13.60;9.23;;;;;;;;;;5052429;28;20025;-62
2022/06/24 01:34:54;;;;;;;15.30;10.10;;;;;;;;;;5052217;28;20029;-63
2022/06/24 01:37:20;;;;;;;14.35;10.00;;;;;;;;;;5052470;28;20033;-65
2022/06/24 01:39:46;;;;;;;14.93;10.18;;;;;;;;;;5052128;28;20104;-61
2022/06/24 01:42:12;;;;;;;13.80;10.70;;;;;;;;;;5051862;28;20152;-62
2022/06/24 01:44:38;;;;;;;13.13;10.05;;;;;;;;;;5052078;28;20460;-62
2022/06/24 01:47:04;;;;;;;17.30;10.70;;;;;;;;;;5052453;28;20476;-62
2022/06/24 01:49:30;;;;;;;13.77;9.85;;;;;;;;;;5052049;28;20207;-60
2022/06/24 01:51:59;;;;;;;13.80;9.90;;;;;;;;;;5052042;28;20028;-61
2022/06/24 01:54:25;;;;;;;14.88;10.55;;;;;;;;;;5051919;28;20457;-62
2022/06/24 01:56:53;;;;;;;15.65;12.05;;;;;;;;;;5051635;28;20126;-63
2022/06/24 01:59:19;;;;;;;16.77;13.70;;;;;;;;;;5051743;28;20029;-62
2022/06/24 02:01:45;;;;;;;16.00;11.75;;;;;;;;;;5052671;28;20028;-61
2022/06/24 02:04:12;;;;;;;14.93;11.00;;;;;;;;;;5053399;28;20029;-61
2022/06/24 02:06:38;;;;;;;14.82;11.45;;;;;;;;;;5052273;28;20443;-62
2022/06/24 02:09:05;;;;;;;18.55;11.35;;;;;;;;;;5051627;28;20400;-61
2022/06/24 02:14:16;;;;;;;16.27;11.10;;;;;;;;;;5051940;28;20125;-61
2022/06/24 02:16:42;;;;;;;14.30;11.35;;;;;;;;;;5051780;28;20060;-63
2022/06/24 02:19:08;;;;;;;15.55;11.18;;;;;;;;;;5051566;28;20540;-62
2022/06/24 02:21:38;;;;;;;15.40;10.98;;;;;;;;;;5051548;28;20533;-61
2022/06/24 02:24:04;;;;;;;19.38;10.98;;;;;;;;;;5051532;28;20040;-62
2022/06/24 02:26:31;;;;;;;16.08;10.45;;;;;;;;;;5051455;28;20060;-63
2022/06/24 02:28:57;;;;;;;17.88;11.75;;;;;;;;;;5051476;28;20553;-63
2022/06/24 02:31:23;;;;;;;16.17;11.55;;;;;;;;;;5051131;28;20060;-61
2022/06/24 02:33:49;;;;;;;17.15;11.85;;;;;;;;;;5051367;28;20511;-62
2022/06/24 02:36:15;;;;;;;18.65;10.90;;;;;;;;;;5051355;28;20495;-61
2022/06/24 02:38:42;;;;;;;14.73;11.75;;;;;;;;;;5051326;28;20115;-61
2022/06/24 02:41:08;;;;;;;20.33;11.85;;;;;;;;;;5051263;28;20075;-62
2022/06/24 02:43:35;;;;;;;14.23;12.00;;;;;;;;;;5051462;28;20032;-61
2022/06/24 02:46:02;;;;;;;15.48;12.52;;;;;;;;;;5051217;28;20068;-63
2022/06/24 02:48:30;;;;;;;16.65;12.35;;;;;;;;;;5051359;28;20052;-63
2022/06/24 02:50:59;;;;;;;18.48;13.70;;;;;;;;;;5051240;28;20029;-63
2022/06/24 02:53:26;;;;;;;19.23;13.93;;;;;;;;;;5051152;28;20032;-63
2022/06/24 02:55:53;;;;;;;21.13;14.63;;;;;;;;;;5051142;28;20429;-62
2022/06/24 02:58:20;;;;;;;20.13;13.88;;;;;;;;;;5050909;28;20139;-62
2022/06/24 03:00:46;;;;;;;17.00;13.65;;;;;;;;;;5051242;28;20075;-61
2022/06/24 03:03:13;;;;;;;21.58;13.60;;;;;;;;;;5049531;28;20037;-62
2022/06/24 03:05:39;;;;;;;16.63;13.70;;;;;;;;;;5050665;28;20025;-61
2022/06/24 03:08:06;;;;;;;26.42;14.23;;;;;;;;;;5050885;28;20446;-63
2022/06/24 03:10:32;;;;;;;20.95;14.13;;;;;;;;;;5050909;28;20025;-61
2022/06/24 03:12:58;;;;;;;14.38;11.98;;;;;;;;;;5050972;28;20029;-61
2022/06/24 03:15:24;;;;;;;15.38;12.45;;;;;;;;;;5050824;28;20033;-61
2022/06/24 03:17:50;;;;;;;13.77;11.68;;;;;;;;;;5050784;28;20473;-63
2022/06/24 03:20:17;;;;;;;18.13;12.05;;;;;;;;;;5050824;28;20392;-61
2022/06/24 03:22:43;;;;;;;16.55;11.82;;;;;;;;;;5050732;28;20021;-66
2022/06/24 03:25:09;;;;;;;16.13;11.63;;;;;;;;;;5050919;28;20033;-67
2022/06/24 03:27:35;;;;;;;18.02;13.05;;;;;;;;;;5050834;28;20037;-66
2022/06/24 03:30:02;;;;;;;17.17;13.43;;;;;;;;;;5050811;28;20047;-67
2022/06/24 03:32:28;;;;;;;18.25;14.25;;;;;;;;;;5050740;28;20063;-67
2022/06/24 03:34:54;;;;;;;17.98;15.05;;;;;;;;;;5050767;28;20075;-67
2022/06/24 03:37:20;;;;;;;18.80;14.43;;;;;;;;;;5050678;28;20090;-67
2022/06/24 03:39:46;;;;;;;17.30;14.07;;;;;;;;;;5050781;28;20032;-62
2022/06/24 03:42:12;;;;;;;17.58;14.13;;;;;;;;;;5050585;28;20033;-63
2022/06/24 03:44:38;;;;;;;19.08;14.32;;;;;;;;;;5053213;28;20443;-68
2022/06/24 03:47:04;;;;;;;17.80;14.27;;;;;;;;;;5054362;28;20083;-68
2022/06/24 03:49:30;;;;;;;18.33;14.45;;;;;;;;;;5054184;28;20029;-62
2022/06/24 03:51:57;;;;;;;17.75;15.38;;;;;;;;;;5054385;28;20017;-65
2022/06/24 03:54:23;;;;;;;18.10;14.70;;;;;;;;;;5054166;28;20036;-61
2022/06/24 03:56:49;;;;;;;16.95;15.23;;;;;;;;;;5053981;28;20059;-63
2022/06/24 03:59:15;;;;;;;19.85;15.68;;;;;;;;;;5054057;28;20036;-61
2022/06/24 04:01:41;;;;;;;17.23;13.70;;;;;;;;;;5054088;28;20029;-65
2022/06/24 04:04:07;;;;;;;16.60;14.40;;;;;;;;;;5053627;28;20029;-67
2022/06/24 04:06:33;;;;;;;21.42;13.70;;;;;;;;;;5053997;28;20025;-66
2022/06/24 04:08:59;;;;;;;18.70;14.38;;;;;;;;;;5054011;28;20091;-63
2022/06/24 04:11:25;;;;;;;19.67;13.63;;;;;;;;;;5053755;28;20021;-62
2022/06/24 04:13:51;;;;;;;16.98;13.93;;;;;;;;;;5053752;28;20021;-62
2022/06/24 04:16:17;;;;;;;20.05;14.95;;;;;;;;;;5053660;28;20029;-63
2022/06/24 04:18:43;;;;;;;18.67;14.48;;;;;;;;;;5053446;28;20037;-62
2022/06/24 04:21:11;;;;;;;17.00;15.20;;;;;;;;;;5053699;28;20017;-62
2022/06/24 04:23:37;;;;;;;18.83;13.82;;;;;;;;;;5053752;28;20101;-62
2022/06/24 04:26:03;;;;;;;17.75;13.90;;;;;;;;;;5053599;28;20044;-62
2022/06/24 04:28:29;;;;;;;15.70;14.02;;;;;;;;;;5053223;28;20025;-63
2022/06/24 04:30:55;;;;;;;17.00;13.65;;;;;;;;;;5053791;28;20124;-62
2022/06/24 04:33:21;;;;;;;18.23;13.70;;;;;;;;;;5053322;28;20029;-67
2022/06/24 04:35:48;;;;;;;16.50;13.98;;;;;;;;;;5053039;28;20028;-63
2022/06/24 04:38:14;;;;;;;15.27;13.32;;;;;;;;;;5053148;28;20119;-65
2022/06/24 04:40:40;;;;;;;17.05;13.23;;;;;;;;;;5053273;28;20029;-66
2022/06/24 04:43:07;;;;;;;14.07;12.68;;;;;;;;;;5053388;28;20079;-62
2022/06/24 04:45:34;;;;;;;16.98;13.35;;;;;;;;;;5053351;28;20024;-67
2022/06/24 04:48:00;;;;;;;16.33;13.35;;;;;;;;;;5053154;28;20035;-63
2022/06/24 04:50:26;;;;;;;16.27;13.15;;;;;;;;;;5053241;28;20029;-62
2022/06/24 04:52:52;;;;;;;17.38;13.50;;;;;;;;;;5051095;28;20080;-68
2022/06/24 04:55:19;;;;;;;13.90;12.45;;;;;;;;;;5052765;28;20435;-70
2022/06/24 04:57:45;;;;;;;16.23;12.88;;;;;;;;;;5052582;28;20060;-66
2022/06/24 05:00:11;;;;;;;18.02;12.70;;;;;;;;;;5050600;28;20021;-67
2022/06/24 05:02:37;;;;;;;16.65;12.85;;;;;;;;;;5041066;28;20040;-67
2022/06/24 05:05:05;;;;;;;15.13;11.77;;;;;;;;;;5040142;28;20025;-71
2022/06/24 05:07:32;;;;;;;17.42;11.82;;;;;;;;;;5032970;28;20018;-64
2022/06/24 05:09:58;;;;;;;14.23;11.88;;;;;;;;;;5039595;28;20037;-71
2022/06/24 05:12:24;;;;;;;14.68;11.70;;;;;;;;;;5040631;28;20049;-67
2022/06/24 05:14:50;;;;;;;13.10;11.52;;;;;;;;;;5041474;28;20043;-64
2022/06/24 05:17:16;;;;;;;13.35;11.55;;;;;;;;;;5042007;28;20090;-64
2022/06/24 05:19:42;;;;;;;11.80;10.60;;;;;;;;;;5040378;28;20024;-67
2022/06/24 05:22:08;;;;;;;12.68;11.18;;;;;;;;;;5041669;28;20104;-68
2022/06/24 05:24:34;;;;;;;13.30;11.38;;;;;;;;;;5041370;28;20354;-66
2022/06/24 05:27:00;;;;;;;13.30;11.40;;;;;;;;;;5039775;28;20539;-68
2022/06/24 05:29:26;;;;;;;13.63;12.23;;;;;;;;;;5043026;28;20112;-64
2022/06/24 05:31:52;;;;;;;13.45;11.48;;;;;;;;;;5046115;28;20108;-69
2022/06/24 05:34:18;;;;;;;12.13;10.82;;;;;;;;;;5040546;28;20017;-62
2022/06/24 05:36:44;;;;;;;14.15;11.20;;;;;;;;;;5041746;28;20041;-63
2022/06/24 05:39:10;;;;;;;15.00;11.18;;;;;;;;;;5052194;28;20025;-63
2022/06/24 05:41:39;;;;;;;13.60;11.55;;;;;;;;;;5040467;28;20033;-65
2022/06/24 05:44:05;;;;;;;14.32;11.20;;;;;;;;;;5042113;28;20056;-66
2022/06/24 05:46:31;;;;;;;12.65;10.38;;;;;;;;;;5047206;28;20408;-63
2022/06/24 05:48:57;;;;;;;12.93;10.00;;;;;;;;;;5051587;28;20056;-63
2022/06/24 05:51:24;;;;;;;13.32;10.85;;;;;;;;;;5051418;28;20068;-74
2022/06/24 05:56:35;;;;;;;13.48;12.07;;;;;;;;;;5040739;28;20055;-68
2022/06/24 05:59:02;;;;;;;14.35;12.27;;;;;;;;;;5036024;28;20033;-64
2022/06/24 06:01:28;;;;;;;13.48;11.40;;;;;;;;;;5033757;28;20583;-79
2022/06/24 06:03:54;;;;;;;14.68;12.25;;;;;;;;;;5049504;28;20408;-77
2022/06/24 06:06:21;;;;;;;18.70;12.55;;;;;;;;;;5050610;28;20025;-63
2022/06/24 06:08:47;;;;;;;16.77;11.35;;;;;;;;;;5051144;28;20025;-63
2022/06/24 06:11:17;;;;;;;14.48;10.38;;;;;;;;;;5050128;28;20036;-63
2022/06/24 06:13:44;;;;;;;11.40;9.07;;;;;;;;;;5051231;28;20078;-71
2022/06/24 06:16:10;;;;;;;12.23;8.23;;;;;;;;;;5050680;28;20078;-63
2022/06/24 06:18:36;;;;;;;11.48;7.22;;;;;;;;;;5050630;28;20441;-65
2022/06/24 06:21:03;;;;;;;11.18;7.30;;;;;;;;;;5050420;28;20028;-62
2022/06/24 06:23:29;;;;;;;7.28;5.65;;;;;;;;;;5049540;28;20040;-69
2022/06/24 06:25:59;;;;;;;8.68;5.78;;;;;;;;;;5050483;28;20029;-65
2022/06/24 06:28:25;;;;;;;9.70;6.63;;;;;;;;;;5051237;28;20032;-71
2022/06/24 06:30:51;;;;;;;9.45;6.43;;;;;;;;;;5051289;28;20029;-70
2022/06/24 06:33:17;;;;;;;9.35;7.13;;;;;;;;;;5051527;28;20083;-62
2022/06/24 06:35:44;;;;;;;10.15;6.88;;;;;;;;;;5049749;28;20037;-68
2022/06/24 06:38:10;;;;;;;12.43;7.82;;;;;;;;;;5051357;28;20043;-62
2022/06/24 06:40:36;;;;;;;8.73;6.22;;;;;;;;;;5051041;28;20108;-70
2022/06/24 06:43:05;;;;;;;9.20;6.97;;;;;;;;;;5051349;28;20596;-65
2022/06/24 06:45:31;;;;;;;10.05;7.00;;;;;;;;;;5051292;28;20079;-69
2022/06/24 06:47:57;;;;;;;9.50;6.45;;;;;;;;;;5050802;28;20033;-62
2022/06/24 06:50:23;;;;;;;11.35;6.70;;;;;;;;;;5050762;28;20473;-63
2022/06/24 06:52:49;;;;;;;12.52;7.43;;;;;;;;;;5050848;28;20059;-62
2022/06/24 06:55:15;;;;;;;11.20;8.70;;;;;;;;;;5050674;28;20025;-63
2022/06/24 06:57:41;;;;;;;12.73;8.07;;;;;;;;;;5050501;28;20059;-62
2022/06/24 07:00:09;;;;;;;11.23;7.90;;;;;;;;;;5050853;28;20035;-63
2022/06/24 07:02:35;;;;;;;10.70;8.15;;;;;;;;;;5050954;28;20028;-71
2022/06/24 07:05:01;;;;;;;9.75;7.72;;;;;;;;;;5050736;28;20531;-72
2022/06/24 07:07:27;;;;;;;15.55;7.47;;;;;;;;;;5050893;28;20021;-63
2022/06/24 07:09:54;;;;;;;11.82;6.53;;;;;;;;;;5050802;28;20086;-71
2022/06/24 07:12:21;;;;;;;16.10;7.70;;;;;;;;;;5050282;28;20040;-67
2022/06/24 07:14:47;;;;;;;14.95;8.02;;;;;;;;;;5050375;28;20055;-62
2022/06/24 07:17:13;;;;;;;11.48;8.32;;;;;;;;;;5051099;28;20036;-69
2022/06/24 07:19:39;;;;;;;11.88;7.85;;;;;;;;;;5053252;28;20043;-63
2022/06/24 07:22:05;;;;;;;11.70;7.35;;;;;;;;;;5054722;28;20109;-64
2022/06/24 07:24:31;;;;;;;12.25;7.22;;;;;;;;;;5054197;28;20052;-66
2022/06/24 07:26:57;;;;;;;11.93;6.78;;;;;;;;;;5054059;28;20071;-66
2022/06/24 07:29:23;;;;;;;12.20;8.15;;;;;;;;;;5054432;28;20095;-64
2022/06/24 07:31:49;;;;;;;9.32;6.32;;;;;;;;;;5054415;28;20044;-65
2022/06/24 07:34:15;;;;;;;10.65;6.60;;;;;;;;;;5054009;28;20021;-66
2022/06/24 07:36:41;;;;;;;14.68;8.02;;;;;;;;;;5053747;28;20048;-67
2022/06/24 07:39:08;;;;;;;10.38;6.53;;;;;;;;;;5054366;28;20033;-63
2022/06/24 07:41:34;;;;;;;11.18;7.00;;;;;;;;;;5053924;28;20028;-67
2022/06/24 07:44:00;;;;;;;10.38;7.20;;;;;;;;;;5053955;28;20036;-65
2022/06/24 07:46:26;;;;;;;15.70;7.65;;;;;;;;;;5053921;28;20128;-65
2022/06/24 07:48:52;;;;;;;10.98;7.05;;;;;;;;;;5053925;28;20025;-66
2022/06/24 07:51:19;;;;;;;7.85;6.22;;;;;;;;;;5054018;28;20044;-67
2022/06/24 07:53:46;;;;;;;7.70;5.97;;;;;;;;;;5054081;28;20027;-64
2022/06/24 07:58:58;;;;;;;6.72;5.15;;;;;;;;;;5054565;28;20051;-67
2022/06/24 08:01:24;;;;;;;12.25;7.35;;;;;;;;;;5054509;28;20112;-63
2022/06/24 08:03:50;;;;;;;8.05;5.85;;;;;;;;;;5053604;28;20122;-63
2022/06/24 08:06:16;;;;;;;7.60;5.90;;;;;;;;;;5052857;28;20124;-64
2022/06/24 08:08:43;;;;;;;8.10;6.10;;;;;;;;;;5053853;28;20048;-67
2022/06/24 08:11:09;;;;;;;9.55;6.05;;;;;;;;;;5054011;28;20076;-68
2022/06/24 08:13:35;;;;;;;9.40;6.20;;;;;;;;;;5053268;28;20032;-69
2022/06/24 08:16:01;;;;;;;7.57;5.47;;;;;;;;;;5053589;28;20025;-68
2022/06/24 08:18:27;;;;;;;8.25;5.50;;;;;;;;;;5053889;28;20459;-68
2022/06/24 08:20:54;;;;;;;6.90;4.95;;;;;;;;;;5053602;28;20354;-67
2022/06/24 08:23:20;;;;;;;10.05;5.07;;;;;;;;;;5053617;28;20063;-67
2022/06/24 08:25:46;;;;;;;8.52;5.95;;;;;;;;;;5053744;28;20039;-67
2022/06/24 08:28:12;;;;;;;7.90;5.80;;;;;;;;;;5053109;28;20524;-67
2022/06/24 08:30:38;;;;;;;12.98;8.18;;;;;;;;;;5051626;28;20080;-62
2022/06/24 08:33:04;;;;;;;13.18;7.82;;;;;;;;;;5053238;28;20032;-66
2022/06/24 08:35:31;;;;;;;10.48;7.50;;;;;;;;;;5052717;28;20056;-65
2022/06/24 08:37:58;;;;;;;14.18;8.07;;;;;;;;;;5053352;28;20037;-66
2022/06/24 08:40:25;;;;;;;12.27;7.43;;;;;;;;;;5052348;28;20100;-69
2022/06/24 08:42:52;;;;;;;10.02;6.70;;;;;;;;;;5053129;28;20082;-64
2022/06/24 08:45:18;;;;;;;9.75;7.20;;;;;;;;;;5053126;28;20017;-66
2022/06/24 08:47:47;;;;;;;9.75;5.97;;;;;;;;;;5052630;28;20025;-67
2022/06/24 08:50:13;;;;;;;12.20;6.53;;;;;;;;;;5052930;28;20390;-65
2022/06/24 08:52:46;;;;;;;7.47;5.65;;;;;;;;;;5052756;28;20020;-68
2022/06/24 08:55:15;;;;;;;13.93;7.20;;;;;;;;;;5052709;28;20025;-68
2022/06/24 08:57:41;;;;;;;14.75;7.25;;;;;;;;;;5052263;28;20053;-63
2022/06/24 09:00:07;;;;;;;11.40;6.43;;;;;;;;;;5053113;28;20017;-64
2022/06/24 09:02:33;;;;;;;8.27;5.93;;;;;;;;;;5053094;28;20032;-67
2022/06/24 09:05:00;;;;;;;9.55;6.00;;;;;;;;;;5052070;28;20111;-68
2022/06/24 09:07:26;;;;;;;8.25;5.38;;;;;;;;;;5052616;28;20021;-65
2022/06/24 09:09:59;;;;;;;14.48;5.53;;;;;;;;;;5052621;28;20033;-66
2022/06/24 09:12:29;;;;;;;6.82;4.95;;;;;;;;;;5052246;28;20021;-70
2022/06/24 09:14:55;;;;;;;19.88;6.70;;;;;;;;;;5052545;28;20029;-68
2022/06/24 09:17:28;;;;;;;10.80;4.47;;;;;;;;;;5052535;28;20111;-64
2022/06/24 09:20:03;;;;;;;9.73;4.72;;;;;;;;;;5052527;28;20056;-65
2022/06/24 09:22:29;;;;;;;7.28;4.22;;;;;;;;;;5052647;28;20111;-66
2022/06/24 09:24:55;;;;;;;6.00;3.38;;;;;;;;;;5052141;28;20412;-63
2022/06/24 09:27:21;;;;;;;6.80;3.40;;;;;;;;;;5052273;28;20155;-67
2022/06/24 09:29:48;;;;;;;7.32;3.13;;;;;;;;;;5052332;28;20052;-63
2022/06/24 09:32:14;;;;;;;7.47;2.97;;;;;;;;;;5052264;28;20013;-64
2022/06/24 09:34:57;;;;;;;5.75;3.50;;;;;;;;;;5050754;28;20068;-63
2022/06/24 09:37:41;;;;;;;5.85;3.30;;;;;;;;;;5051843;28;20047;-66
2022/06/24 09:40:16;;;;;;;5.30;3.03;;;;;;;;;;5052366;28;20100;-69
2022/06/24 09:42:43;;;;;;;7.05;3.30;;;;;;;;;;5051034;28;20021;-69
2022/06/24 09:45:09;;;;;;;8.00;2.78;;;;;;;;;;5051873;28;20373;-62
2022/06/24 09:47:41;;;;;;;3.75;2.40;;;;;;;;;;5051475;28;20021;-71
2022/06/24 09:50:07;;;;;;;5.57;2.90;;;;;;;;;;5051614;28;20381;-68
2022/06/24 09:52:34;;;;;;;5.38;2.83;;;;;;;;;;5051903;28;20021;-63
2022/06/24 09:55:02;;;;;;;6.00;2.85;;;;;;;;;;5051806;28;20067;-65
2022/06/24 09:57:28;;;;;;;5.65;2.92;;;;;;;;;;5051257;28;20520;-75
2022/06/24 10:02:39;;;;;;;4.32;2.20;;;;;;;;;;5051853;28;20531;-70
2022/06/24 10:05:07;;;;;;;4.00;2.40;;;;;;;;;;5045405;28;20104;-70
2022/06/24 10:07:35;;;;;;;4.90;2.20;;;;;;;;;;5031643;28;20029;-65
2022/06/24 10:10:03;;;;;;;3.85;1.58;;;;;;;;;;5031031;28;20025;-68
2022/06/24 10:12:30;;;;;;;3.95;1.80;;;;;;;;;;5031138;28;20033;-62
2022/06/24 10:14:59;;;;;;;6.43;2.10;;;;;;;;;;5031618;28;20540;-68
2022/06/24 10:17:25;;;;;;;3.10;1.80;;;;;;;;;;5031597;28;20034;-67
2022/06/24 10:19:51;;;;;;;4.05;1.75;;;;;;;;;;5030743;28;20037;-62
2022/06/24 10:22:44;;;;;;;4.88;1.95;;;;;;;;;;5031365;28;20034;-69
2022/06/24 10:25:10;;;;;;;4.07;1.88;;;;;;;;;;5030695;28;20482;-64
2022/06/24 10:27:55;;;;;;;6.93;2.10;;;;;;;;;;5030949;28;20037;-75
2022/06/24 10:30:39;;;;;;;2.83;1.95;;;;;;;;;;5032791;28;20075;-66
2022/06/24 10:33:21;;;;;;;5.32;2.00;;;;;;;;;;5051178;28;20086;-64
2022/06/24 10:35:56;;;;;;;4.25;2.00;;;;;;;;;;5050421;28;20023;-68
2022/06/24 10:38:23;;;;;;;2.70;1.98;;;;;;;;;;5048920;28;20128;-67
2022/06/24 10:40:50;;;;;;;3.72;2.05;;;;;;;;;;5050657;28;20031;-66
2022/06/24 10:43:42;;;;;;;4.53;2.38;;;;;;;;;;5051104;28;20033;-62
2022/06/24 10:46:11;;;;;;;3.97;2.00;;;;;;;;;;5050455;28;20033;-66
2022/06/24 10:48:43;;;;;;;3.25;2.00;;;;;;;;;;5050482;28;20033;-64
2022/06/24 10:51:13;;;;;;;4.13;2.10;;;;;;;;;;5050762;28;20063;-66
2022/06/24 10:53:58;;;;;;;5.53;2.10;;;;;;;;;;5050604;28;20025;-67
2022/06/24 10:56:36;;;;;;;5.10;2.53;;;;;;;;;;5039571;28;20041;-68
2022/06/24 10:59:02;;;;;;;3.95;2.28;;;;;;;;;;5030767;28;20083;-69
2022/06/24 11:01:28;;;;;;;4.63;2.30;;;;;;;;;;5030519;28;20079;-67
2022/06/24 11:03:54;;;;;;;3.63;1.92;;;;;;;;;;5030037;28;20033;-69
2022/06/24 11:06:20;;;;;;;4.50;2.40;;;;;;;;;;5030219;28;20105;-67
2022/06/24 11:08:46;;;;;;;4.00;2.25;;;;;;;;;;5030680;28;20025;-70
2022/06/24 11:11:25;;;;;;;5.07;2.40;;;;;;;;;;5030443;28;20033;-70
2022/06/24 11:13:51;;;;;;;7.18;2.58;;;;;;;;;;5030734;28;20031;-66
2022/06/24 11:16:18;;;;;;;3.45;2.30;;;;;;;;;;5030367;28;20064;-63
2022/06/24 11:18:44;;;;;;;4.97;2.40;;;;;;;;;;5030497;28;20450;-66
2022/06/24 11:21:10;;;;;;;4.93;2.40;;;;;;;;;;5045551;28;20036;-63
2022/06/24 11:23:37;;;;;;;6.18;2.50;;;;;;;;;;5050002;28;20525;-70
2022/06/24 11:26:06;;;;;;;3.60;2.33;;;;;;;;;;5050155;28;20032;-64
2022/06/24 11:28:35;;;;;;;3.95;2.47;;;;;;;;;;5050308;28;20033;-62
2022/06/24 11:31:19;;;;;;;5.05;2.78;;;;;;;;;;5049907;28;20438;-61
2022/06/24 11:33:50;;;;;;;4.38;2.38;;;;;;;;;;5050213;28;20543;-61
2022/06/24 11:36:16;;;;;;;3.47;2.30;;;;;;;;;;5050476;28;20036;-65
2022/06/24 11:38:51;;;;;;;5.25;2.63;;;;;;;;;;5049641;28;20037;-70
2022/06/24 11:41:27;;;;;;;4.72;2.10;;;;;;;;;;5050491;28;20033;-62
2022/06/24 11:43:53;;;;;;;5.63;2.42;;;;;;;;;;5050406;28;20028;-65
2022/06/24 11:46:19;;;;;;;4.13;2.83;;;;;;;;;;5050234;28;20052;-63
2022/06/24 11:48:45;;;;;;;3.40;2.40;;;;;;;;;;5050011;28;20067;-71
2022/06/24 11:51:20;;;;;;;3.20;2.40;;;;;;;;;;5050154;28;20029;-62
2022/06/24 11:53:59;;;;;;;4.13;2.40;;;;;;;;;;5049027;28;20041;-62
2022/06/24 11:56:29;;;;;;;4.85;2.60;;;;;;;;;;5049226;28;20409;-64
2022/06/24 11:58:56;;;;;;;4.00;2.35;;;;;;;;;;5050037;28;20044;-65
2022/06/24 12:01:23;;;;;;;3.70;2.20;;;;;;;;;;5050230;28;20388;-69
2022/06/24 12:03:50;;;;;;;5.35;2.50;;;;;;;;;;5050483;28;20079;-62
2022/06/24 12:06:17;;;;;;;3.63;2.70;;;;;;;;;;5052891;28;20121;-62
2022/06/24 12:08:43;;;;;;;5.30;2.67;;;;;;;;;;5053742;28;20469;-69
2022/06/24 12:11:14;;;;;;;8.43;2.80;;;;;;;;;;5054054;28;20473;-63
2022/06/24 12:13:41;;;;;;;4.03;2.50;;;;;;;;;;5053411;28;20036;-62
2022/06/24 12:16:07;;;;;;;4.78;2.80;;;;;;;;;;5053679;28;20029;-63
2022/06/24 12:18:34;;;;;;;3.97;2.83;;;;;;;;;;5053381;28;20037;-62
2022/06/24 12:21:01;;;;;;;4.10;2.50;;;;;;;;;;5053452;28;20461;-66
2022/06/24 12:23:46;;;;;;;4.75;2.53;;;;;;;;;;5053583;28;20450;-65
2022/06/24 12:26:16;;;;;;;4.80;2.50;;;;;;;;;;5053121;28;20029;-62
2022/06/24 12:28:43;;;;;;;3.05;2.33;;;;;;;;;;5052305;28;20040;-68
2022/06/24 12:31:09;;;;;;;5.60;2.50;;;;;;;;;;5053396;28;20488;-63
2022/06/24 12:33:38;;;;;;;4.55;2.50;;;;;;;;;;5053447;28;20053;-67
2022/06/24 12:36:09;;;;;;;5.40;2.65;;;;;;;;;;5053099;28;20392;-66
2022/06/24 12:38:36;;;;;;;5.15;2.67;;;;;;;;;;5053212;28;20036;-62
2022/06/24 12:41:09;;;;;;;5.00;2.47;;;;;;;;;;5053000;28;20024;-64
2022/06/24 12:43:35;;;;;;;5.40;2.33;;;;;;;;;;5052818;28;20031;-68
2022/06/24 12:46:05;;;;;;;5.20;2.35;;;;;;;;;;5053118;28;20021;-61
2022/06/24 12:51:23;;;;;;;3.28;2.40;;;;;;;;;;5053430;28;20039;-69
2022/06/24 12:53:50;;;;;;;4.45;2.20;;;;;;;;;;5052944;28;20036;-69
2022/06/24 12:56:16;;;;;;;5.72;2.53;;;;;;;;;;5052627;28;20028;-71
2022/06/24 12:58:42;;;;;;;5.75;2.42;;;;;;;;;;5052760;28;20083;-62
2022/06/24 13:01:08;;;;;;;9.25;2.60;;;;;;;;;;5052875;28;20025;-63
2022/06/24 13:03:34;;;;;;;4.07;2.30;;;;;;;;;;5052460;28;20031;-63
2022/06/24 13:06:00;;;;;;;4.63;2.33;;;;;;;;;;5052020;28;20029;-66
2022/06/24 13:08:26;;;;;;;3.35;2.33;;;;;;;;;;5052711;28;20087;-65
2022/06/24 13:10:52;;;;;;;4.15;2.20;;;;;;;;;;5046881;28;20025;-67
2022/06/24 13:13:18;;;;;;;3.15;2.20;;;;;;;;;;5040977;28;20028;-62
2022/06/24 13:15:44;;;;;;;5.28;2.47;;;;;;;;;;5040490;28;20021;-65
2022/06/24 13:18:11;;;;;;;6.50;2.65;;;;;;;;;;5040890;28;20029;-62
2022/06/24 13:20:37;;;;;;;5.25;2.33;;;;;;;;;;5041875;28;20476;-62
2022/06/24 13:23:03;;;;;;;8.35;2.90;;;;;;;;;;5040230;28;20401;-65
2022/06/24 13:25:29;;;;;;;4.15;2.60;;;;;;;;;;5041208;28;20025;-64
2022/06/24 13:27:55;;;;;;;5.47;3.00;;;;;;;;;;5042059;28;20038;-64
2022/06/24 13:30:21;;;;;;;5.40;2.72;;;;;;;;;;5040181;28;20080;-67
2022/06/24 13:32:47;;;;;;;5.80;2.70;;;;;;;;;;5041252;28;20044;-68
2022/06/24 13:35:13;;;;;;;4.72;2.70;;;;;;;;;;5041434;28;20021;-62
2022/06/24 13:37:39;;;;;;;7.35;2.75;;;;;;;;;;5039500;28;20033;-62
2022/06/24 13:40:07;;;;;;;3.60;2.35;;;;;;;;;;5041149;28;20017;-63
2022/06/24 13:42:33;;;;;;;3.80;2.50;;;;;;;;;;5041570;28;20025;-63
2022/06/24 13:45:00;;;;;;;4.00;2.65;;;;;;;;;;5032143;28;20041;-65
2022/06/24 13:47:26;;;;;;;5.30;2.28;;;;;;;;;;5031887;28;20116;-68
2022/06/24 13:49:53;;;;;;;4.30;2.25;;;;;;;;;;5031858;28;20105;-63
2022/06/24 13:52:19;;;;;;;4.45;2.20;;;;;;;;;;5032063;28;20057;-69
2022/06/24 13:54:45;;;;;;;6.30;2.53;;;;;;;;;;5032035;28;20044;-62
2022/06/24 13:57:11;;;;;;;4.85;2.88;;;;;;;;;;5031778;28;20060;-70
2022/06/24 13:59:37;;;;;;;3.70;2.58;;;;;;;;;;5042533;28;20389;-65
2022/06/24 14:02:04;;;;;;;4.93;2.67;;;;;;;;;;5051738;28;20043;-63
2022/06/24 14:04:30;;;;;;;8.75;3.15;;;;;;;;;;5051887;28;20029;-62
2022/06/24 14:06:56;;;;;;;8.80;2.90;;;;;;;;;;5051488;28;20021;-63
2022/06/24 14:09:22;;;;;;;8.45;2.75;;;;;;;;;;5051644;28;20020;-73
2022/06/24 14:11:48;;;;;;;5.13;2.65;;;;;;;;;;5051513;28;20107;-70
2022/06/24 14:14:16;;;;;;;7.68;2.83;;;;;;;;;;5050681;28;20051;-69
2022/06/24 14:16:42;;;;;;;6.72;3.10;;;;;;;;;;5048268;28;20039;-62
2022/06/24 14:19:09;;;;;;;3.92;2.40;;;;;;;;;;5051476;28;20064;-69
2022/06/24 14:21:35;;;;;;;7.88;2.72;;;;;;;;;;5051364;28;20023;-71
2022/06/24 14:26:46;;;;;;;5.60;2.70;;;;;;;;;;5050958;28;20063;-71
2022/06/24 14:29:12;;;;;;;5.55;2.50;;;;;;;;;;5050731;28;20021;-67
2022/06/24 14:31:38;;;;;;;5.32;2.55;;;;;;;;;;5051119;28;20543;-63
2022/06/24 14:34:04;;;;;;;9.85;3.15;;;;;;;;;;5051156;28;20111;-64
2022/06/24 14:36:30;;;;;;;4.35;2.55;;;;;;;;;;5050430;28;20557;-65
2022/06/24 14:41:41;;;;;;;5.32;2.58;;;;;;;;;;5051290;28;20059;-69
2022/06/24 14:44:07;;;;;;;4.97;2.75;;;;;;;;;;5051046;28;20036;-62
2022/06/24 14:46:33;;;;;;;6.15;3.05;;;;;;;;;;5050964;28;20028;-69
2022/06/24 14:48:59;;;;;;;6.43;3.08;;;;;;;;;;5051030;28;20029;-64
2022/06/24 14:51:25;;;;;;;5.50;3.05;;;;;;;;;;5050859;28;20036;-63